createdAt,value
2022-09-28T00:01:14.942Z,92454.25
2022-09-28T00:03:41.306Z,92487.59
2022-09-28T00:06:10.253Z,92471.44
2022-09-28T00:08:36.937Z,92493.47
2022-09-28T00:11:05.802Z,92482.16
2022-09-28T00:13:34.065Z,92489.28
2022-09-28T00:16:04.697Z,92500.88
2022-09-28T00:18:32.200Z,92499.44
2022-09-28T00:21:04.703Z,92485.25
2022-09-28T00:23:31.525Z,92466.34
2022-09-28T00:26:03.326Z,92443.66
2022-09-28T00:28:29.827Z,92437.91
2022-09-28T00:30:56.512Z,92462.19
2022-09-28T00:33:32.019Z,92448.44
2022-09-28T00:35:58.855Z,92446.59
2022-09-28T00:38:29.426Z,92421.31
2022-09-28T00:40:56.024Z,92397.31
2022-09-28T00:43:23.696Z,92412.19
2022-09-28T00:46:06.478Z,92384.63
2022-09-28T00:48:37.585Z,92373.22
2022-09-28T00:51:09.124Z,92386.59
2022-09-28T00:53:37.794Z,92388.38
2022-09-28T00:56:11.335Z,92356.03
2022-09-28T00:58:48.926Z,92372.50
2022-09-28T01:01:15.701Z,92369.66
2022-09-28T01:03:45.339Z,92341.75
2022-09-28T01:06:18.153Z,92362.81
2022-09-28T01:08:46.895Z,92356.34
2022-09-28T01:11:13.286Z,92347.38
2022-09-28T01:13:41.053Z,92334.66
2022-09-28T01:16:30.512Z,92337.56
2022-09-28T01:19:25.014Z,92335.97
2022-09-28T01:22:29.117Z,92320.78
2022-09-28T01:25:39.678Z,92226.16
2022-09-28T01:28:18.152Z,92274.56
2022-09-28T01:30:56.405Z,92286.84
2022-09-28T01:33:27.104Z,92281.63
2022-09-28T01:35:59.728Z,92279.06
2022-09-28T01:38:33.599Z,92268.66
2022-09-28T01:41:00.592Z,92276.31
2022-09-28T01:43:28.945Z,92277.28
2022-09-28T01:46:07.448Z,92280.72
2022-09-28T01:49:10.976Z,92258.88
2022-09-28T01:51:55.416Z,92224.34
2022-09-28T01:54:46.191Z,92243.09
2022-09-28T01:57:21.941Z,92245.81
2022-09-28T02:00:15.797Z,92243.53
2022-09-28T02:03:10.953Z,92230.16
2022-09-28T02:05:40.424Z,92226.25
2022-09-28T02:08:19.972Z,92208.19
2022-09-28T02:10:56.003Z,92206.25
2022-09-28T02:13:29.727Z,92204.41
2022-09-28T02:16:04.497Z,92174.81
2022-09-28T02:18:31.467Z,92166.91
2022-09-28T02:21:17.846Z,92172.34
2022-09-28T02:23:56.246Z,92188.91
2022-09-28T02:26:29.515Z,92187.38
2022-09-28T02:28:55.881Z,92166.31
2022-09-28T02:31:22.361Z,92163.63
2022-09-28T02:33:50.961Z,92189.25
2022-09-28T02:36:17.521Z,92173.84
2022-09-28T02:38:43.935Z,92180.97
2022-09-28T02:41:48.779Z,92178.06
2022-09-28T02:44:40.814Z,92177.97
2022-09-28T02:47:24.809Z,92156.38
2022-09-28T02:50:17.342Z,92172.25
2022-09-28T02:53:11.890Z,92149.41
2022-09-28T02:56:12.462Z,92164.44
2022-09-28T02:59:04.093Z,92163.63
2022-09-28T03:01:36.386Z,92162.94
2022-09-28T03:04:35.023Z,92163.19
2022-09-28T03:07:07.468Z,92141.91
2022-09-28T03:09:50.907Z,92137.97
2022-09-28T03:12:23.030Z,92144.84
2022-09-28T03:15:06.324Z,92150.28
2022-09-28T03:17:32.757Z,92129.03
2022-09-28T03:19:59.128Z,92124.72
2022-09-28T03:22:26.521Z,92127.44
2022-09-28T03:24:52.919Z,92128.34
2022-09-28T03:27:19.285Z,92119.13
2022-09-28T03:29:45.637Z,92117.66
2022-09-28T03:32:12.010Z,92151.16
2022-09-28T03:34:38.393Z,92138.22
2022-09-28T03:37:04.759Z,92151.63
2022-09-28T03:39:31.147Z,92145.91
2022-09-28T03:42:00.521Z,92141.22
2022-09-28T03:44:27.911Z,92126.50
2022-09-28T03:46:54.273Z,92140.06
2022-09-28T03:49:20.790Z,92119.50
2022-09-28T03:51:47.269Z,92140.50
2022-09-28T03:54:13.767Z,92097.34
2022-09-28T03:56:41.155Z,92152.06
2022-09-28T03:59:07.520Z,92127.44
2022-09-28T04:01:33.947Z,92138.94
2022-09-28T04:04:00.521Z,92118.53
2022-09-28T04:06:27.106Z,92119.94
2022-09-28T04:08:55.555Z,92134.38
2022-09-28T04:11:24.203Z,92123.47
2022-09-28T04:13:50.730Z,92126.44
2022-09-28T04:16:18.449Z,92095.47
2022-09-28T04:18:47.073Z,92103.88
2022-09-28T04:21:16.778Z,92129.75
2022-09-28T04:23:43.301Z,92120.22
2022-09-28T04:26:20.857Z,92123.91
2022-09-28T04:29:07.007Z,92108.25
2022-09-28T04:31:42.742Z,92076.69
2022-09-28T04:34:09.359Z,92081.84
2022-09-28T04:36:35.786Z,92083.44
2022-09-28T04:39:02.161Z,92099.44
2022-09-28T04:41:28.529Z,92060.84
2022-09-28T04:43:54.982Z,92071.88
2022-09-28T04:46:40.052Z,92088.72
2022-09-28T04:49:09.570Z,92082.28
2022-09-28T04:51:36.067Z,92061.50
2022-09-28T04:54:07.411Z,92071.44
2022-09-28T04:56:33.803Z,92054.72
2022-09-28T04:59:00.211Z,92043.91
2022-09-28T05:01:26.680Z,92048.56
2022-09-28T05:03:53.155Z,92052.00
2022-09-28T05:06:19.927Z,92058.00
2022-09-28T05:08:47.174Z,92031.09
2022-09-28T05:11:14.754Z,92040.47
2022-09-28T05:13:43.385Z,92057.56
2022-09-28T05:16:10.294Z,92037.47
2022-09-28T05:18:36.681Z,92057.25
2022-09-28T05:21:04.055Z,92027.16
2022-09-28T05:23:30.500Z,92062.56
2022-09-28T05:25:56.976Z,92018.94
2022-09-28T05:28:29.765Z,92022.72
2022-09-28T05:31:05.947Z,92049.97
2022-09-28T05:33:33.101Z,92028.25
2022-09-28T05:36:01.459Z,92045.31
2022-09-28T05:38:30.450Z,92062.66
2022-09-28T05:40:57.643Z,92054.72
2022-09-28T05:43:24.138Z,92034.59
2022-09-28T05:45:55.358Z,92038.63
2022-09-28T05:48:22.277Z,92052.34
2022-09-28T05:50:52.673Z,92052.25
2022-09-28T05:53:19.880Z,92051.00
2022-09-28T05:55:46.390Z,92041.88
2022-09-28T05:58:12.984Z,92034.41
2022-09-28T06:00:40.404Z,92041.16
2022-09-28T06:03:10.663Z,92047.50
2022-09-28T06:05:39.235Z,92068.53
2022-09-28T06:08:08.410Z,92026.47
2022-09-28T06:10:35.323Z,92057.13
2022-09-28T06:13:02.038Z,92069.13
2022-09-28T06:15:30.920Z,92031.84
2022-09-28T06:18:02.391Z,92071.09
2022-09-28T06:20:31.355Z,92062.63
2022-09-28T06:22:57.734Z,92075.06
2022-09-28T06:25:25.822Z,92060.91
2022-09-28T06:28:02.770Z,92060.69
2022-09-28T06:30:31.211Z,92084.41
2022-09-28T06:32:59.551Z,92064.06
2022-09-28T06:35:28.345Z,92069.06
2022-09-28T06:37:54.739Z,92063.63
2022-09-28T06:40:22.104Z,92068.59
2022-09-28T06:43:11.206Z,92065.13
2022-09-28T06:45:38.549Z,92086.94
2022-09-28T06:48:05.830Z,92074.41
2022-09-28T06:50:37.354Z,92084.34
2022-09-28T06:53:12.272Z,92085.81
2022-09-28T06:55:39.951Z,92079.88
2022-09-28T06:58:10.131Z,92093.69
2022-09-28T07:00:40.222Z,92060.84
2022-09-28T07:03:14.807Z,92084.19
2022-09-28T07:05:54.092Z,92094.31
2022-09-28T07:08:24.602Z,92106.75
2022-09-28T07:10:56.302Z,92108.34
2022-09-28T07:16:14.917Z,92094.84
2022-09-28T07:18:42.219Z,92090.91
2022-09-28T07:21:11.283Z,92054.47
2022-09-28T07:23:52.688Z,92091.34
2022-09-28T07:26:23.615Z,92100.31
2022-09-28T07:28:50.921Z,92105.41
2022-09-28T07:31:17.332Z,92081.63
2022-09-28T07:33:43.803Z,92092.03
2022-09-28T07:36:10.612Z,92068.88
2022-09-28T07:38:38.216Z,92100.13
2022-09-28T07:41:14.784Z,92113.34
2022-09-28T07:43:41.807Z,92126.34
2022-09-28T07:46:11.913Z,92137.00
2022-09-28T07:48:43.074Z,92101.03
2022-09-28T07:51:10.329Z,92146.41
2022-09-28T07:53:38.380Z,92113.25
2022-09-28T07:56:07.283Z,92126.25
2022-09-28T07:58:36.077Z,92127.28
2022-09-28T08:01:05.437Z,92133.75
2022-09-28T08:03:31.907Z,92127.53
2022-09-28T08:06:00.051Z,92141.91
2022-09-28T08:08:27.456Z,92153.88
2022-09-28T08:13:27.358Z,92131.25
2022-09-28T08:15:54.723Z,92153.06
2022-09-28T08:18:21.469Z,92152.06
2022-09-28T08:21:06.452Z,92157.53
2022-09-28T08:23:32.833Z,92134.66
2022-09-28T08:25:59.277Z,92148.13
2022-09-28T08:28:25.768Z,92149.16
2022-09-28T08:30:52.488Z,92142.38
2022-09-28T08:33:21.335Z,92155.03
2022-09-28T08:35:54.520Z,92151.41
2022-09-28T08:38:20.985Z,92075.41
2022-09-28T08:41:06.008Z,92161.81
2022-09-28T08:43:53.845Z,92152.31
2022-09-28T08:46:26.950Z,92151.19
2022-09-28T08:49:30.070Z,92172.25
2022-09-28T08:52:02.985Z,92170.19
2022-09-28T08:54:38.935Z,92173.34
2022-09-28T08:57:11.506Z,92170.53
2022-09-28T08:59:49.596Z,92167.69
2022-09-28T09:02:22.335Z,92173.34
2022-09-28T09:04:51.560Z,92179.72
2022-09-28T09:07:20.883Z,92182.16
2022-09-28T09:09:54.439Z,92186.47
2022-09-28T09:12:58.624Z,92181.97
2022-09-28T09:15:39.280Z,92194.81
2022-09-28T09:18:22.899Z,92203.69
2022-09-28T09:20:55.481Z,92200.75
2022-09-28T09:23:35.809Z,92219.16
2022-09-28T09:26:15.331Z,92193.59
2022-09-28T09:29:13.605Z,92208.78
2022-09-28T09:31:47.359Z,92208.22
2022-09-28T09:34:13.792Z,92210.72
2022-09-28T09:37:04.821Z,92188.31
2022-09-28T09:39:37.314Z,92209.13
2022-09-28T09:42:18.719Z,92205.50
2022-09-28T09:45:18.968Z,92216.38
2022-09-28T09:47:53.950Z,92184.69
2022-09-28T09:50:30.062Z,92224.97
2022-09-28T09:53:02.238Z,92231.09
2022-09-28T09:56:06.386Z,92226.56
2022-09-28T09:58:41.176Z,92197.81
2022-09-28T10:01:13.142Z,92224.97
2022-09-28T10:03:46.961Z,92197.13
2022-09-28T10:06:28.044Z,92230.38
2022-09-28T10:09:16.878Z,92199.38
2022-09-28T10:11:45.788Z,92220.16
2022-09-28T10:14:17.523Z,92231.66
2022-09-28T10:16:45.494Z,92232.50
2022-09-28T10:19:13.211Z,92216.56
2022-09-28T10:21:41.599Z,92211.84
2022-09-28T10:24:17.437Z,92227.31
2022-09-28T10:26:50.116Z,92222.22
2022-09-28T10:29:21.211Z,92208.84
2022-09-28T10:31:52.649Z,92202.59
2022-09-28T10:34:26.198Z,92212.84
2022-09-28T10:36:55.896Z,92216.56
2022-09-28T10:39:33.346Z,92239.78
2022-09-28T10:42:05.246Z,92218.16
2022-09-28T10:44:47.397Z,92244.78
2022-09-28T10:47:17.726Z,92177.91
2022-09-28T10:49:47.383Z,92230.19
2022-09-28T10:52:41.972Z,92274.78
2022-09-28T10:55:20.502Z,92265.25
2022-09-28T10:57:47.931Z,92262.88
2022-09-28T11:00:29.755Z,92269.75
2022-09-28T11:02:56.760Z,92265.59
2022-09-28T11:05:29.947Z,92277.41
2022-09-28T11:07:59.786Z,92281.44
2022-09-28T11:10:31.454Z,92287.66
2022-09-28T11:12:58.707Z,92284.38
2022-09-28T11:15:32.071Z,92286.31
2022-09-28T11:18:22.277Z,92264.22
2022-09-28T11:20:49.565Z,92251.53
2022-09-28T11:23:23.649Z,92249.94
2022-09-28T11:26:04.285Z,92250.28
2022-09-28T11:28:33.616Z,92244.63
2022-09-28T11:31:02.386Z,92236.50
2022-09-28T11:33:43.148Z,92284.31
2022-09-28T11:36:18.710Z,92293.81
2022-09-28T11:39:26.567Z,92283.50
2022-09-28T11:42:02.027Z,92283.88
2022-09-28T11:44:41.356Z,92277.97
2022-09-28T11:47:33.643Z,92276.81
2022-09-28T11:50:06.693Z,92284.19
2022-09-28T11:52:39.607Z,92276.25
2022-09-28T11:55:11.979Z,92258.03
2022-09-28T11:57:43.011Z,92252.81
2022-09-28T12:00:18.427Z,92280.56
2022-09-28T12:02:51.943Z,92270.47
2022-09-28T12:05:42.842Z,92258.03
2022-09-28T12:08:16.862Z,92292.00
2022-09-28T12:10:55.424Z,92275.91
2022-09-28T12:13:29.650Z,92292.91
2022-09-28T12:16:32.844Z,92296.19
2022-09-28T12:19:18.484Z,92289.41
2022-09-28T12:21:53.021Z,92263.69
2022-09-28T12:24:41.755Z,92272.31
2022-09-28T12:27:23.339Z,92293.25
2022-09-28T12:30:04.933Z,92273.88
2022-09-28T12:32:37.459Z,92276.56
2022-09-28T12:35:31.352Z,92264.34
2022-09-28T12:38:17.513Z,92271.16
2022-09-28T12:41:10.974Z,92251.75
2022-09-28T12:43:58.220Z,92249.84
2022-09-28T12:46:49.502Z,92243.81
2022-09-28T12:52:52.270Z,92237.09
2022-09-28T12:55:29.968Z,92263.53
2022-09-28T12:58:36.649Z,92279.19
2022-09-28T13:01:24.445Z,92276.53
2022-09-28T13:04:13.819Z,92264.50
2022-09-28T13:07:12.217Z,92263.91
2022-09-28T13:10:22.749Z,92263.91
2022-09-28T13:13:19.088Z,92272.06
2022-09-28T13:16:10.317Z,92259.59
2022-09-28T13:18:45.720Z,92259.94
2022-09-28T13:21:28.274Z,92254.13
2022-09-28T13:24:14.367Z,92239.22
2022-09-28T13:26:47.950Z,92231.94
2022-09-28T13:29:20.791Z,92251.28
2022-09-28T13:31:57.314Z,92252.25
2022-09-28T13:34:28.814Z,92246.84
2022-09-28T13:37:14.462Z,92253.06
2022-09-28T13:39:44.839Z,92255.22
2022-09-28T13:42:40.710Z,92252.16
2022-09-28T13:45:22.257Z,92261.56
2022-09-28T13:47:54.500Z,92263.38
2022-09-28T13:50:38.613Z,92261.63
2022-09-28T13:53:08.003Z,92261.31
2022-09-28T13:55:56.044Z,92260.84
2022-09-28T13:58:33.353Z,92257.53
2022-09-28T14:01:06.551Z,92216.72
2022-09-28T14:04:11.188Z,92250.88
2022-09-28T14:06:42.840Z,92233.72
2022-09-28T14:09:16.278Z,92265.19
2022-09-28T14:11:53.307Z,92266.00
2022-09-28T14:14:29.336Z,92267.91
2022-09-28T14:17:23.617Z,92271.91
2022-09-28T14:20:07.985Z,92268.53
2022-09-28T14:22:39.469Z,92278.22
2022-09-28T14:25:26.857Z,92276.75
2022-09-28T14:28:01.422Z,92280.84
2022-09-28T14:30:42.149Z,92268.63
2022-09-28T14:33:20.906Z,92286.56
2022-09-28T14:35:56.524Z,92282.69
2022-09-28T14:38:49.765Z,92288.31
2022-09-28T14:41:17.625Z,92290.53
2022-09-28T14:43:43.975Z,92288.81
2022-09-28T14:46:19.777Z,92280.19
2022-09-28T14:49:04.590Z,92269.44
2022-09-28T14:51:31.045Z,92279.28
2022-09-28T14:54:02.374Z,92254.59
2022-09-28T14:56:33.235Z,92267.06
2022-09-28T14:59:00.351Z,92278.59
2022-09-28T15:01:27.530Z,92267.75
2022-09-28T15:04:00.346Z,92260.47
2022-09-28T15:06:29.445Z,92264.69
2022-09-28T15:08:56.109Z,92258.50
2022-09-28T15:11:25.380Z,92295.50
2022-09-28T15:14:06.124Z,92269.69
2022-09-28T15:16:33.200Z,92273.88
2022-09-28T15:19:19.422Z,92296.66
2022-09-28T15:21:47.719Z,92282.81
2022-09-28T15:24:27.735Z,92296.84
2022-09-28T15:27:04.493Z,92307.16
2022-09-28T15:29:33.353Z,92288.81
2022-09-28T15:31:59.989Z,92301.94
2022-09-28T15:34:52.916Z,92280.66
2022-09-28T15:37:23.368Z,92274.06
2022-09-28T15:39:52.577Z,92301.06
2022-09-28T15:42:20.199Z,92304.88
2022-09-28T15:45:02.405Z,92313.34
2022-09-28T15:47:31.836Z,92307.78
2022-09-28T15:50:02.560Z,92308.25
2022-09-28T15:52:40.651Z,92282.50
2022-09-28T15:55:22.165Z,92290.41
2022-09-28T15:57:48.715Z,92319.16
2022-09-28T16:00:21.362Z,92316.34
2022-09-28T16:03:06.651Z,92311.03
2022-09-28T16:05:42.874Z,92287.34
2022-09-28T16:08:26.778Z,92303.22
2022-09-28T16:11:06.766Z,92314.41
2022-09-28T16:13:53.140Z,92318.72
2022-09-28T16:16:26.423Z,92313.91
2022-09-28T16:18:55.226Z,92309.56
2022-09-28T16:21:33.766Z,92324.53
2022-09-28T16:24:00.463Z,92310.88
2022-09-28T16:26:38.675Z,92302.31
2022-09-28T16:29:25.729Z,92319.53
2022-09-28T16:31:53.223Z,92300.78
2022-09-28T16:34:23.681Z,92321.56
2022-09-28T16:36:50.569Z,92315.19
2022-09-28T16:39:18.546Z,92318.28
2022-09-28T16:41:55.603Z,92305.94
2022-09-28T16:44:28.419Z,92303.47
2022-09-28T16:46:57.527Z,92281.06
2022-09-28T16:49:25.549Z,92295.09
2022-09-28T16:51:52.708Z,92277.22
2022-09-28T16:54:40.708Z,92305.50
2022-09-28T16:57:11.235Z,92298.81
2022-09-28T16:59:40.641Z,92275.81
2022-09-28T17:02:46.226Z,92308.69
2022-09-28T17:05:15.771Z,92292.31
2022-09-28T17:07:44.416Z,92277.81
2022-09-28T17:10:30.982Z,92292.53
2022-09-28T17:12:57.339Z,92304.97
2022-09-28T17:15:25.875Z,92314.75
2022-09-28T17:17:52.289Z,92304.34
2022-09-28T17:20:22.750Z,92322.59
2022-09-28T17:22:50.291Z,92327.19
2022-09-28T17:25:17.343Z,92301.38
2022-09-28T17:27:46.078Z,92331.53
2022-09-28T17:30:13.546Z,92313.34
2022-09-28T17:32:44.923Z,92339.91
2022-09-28T17:35:24.263Z,92338.91
2022-09-28T17:37:51.611Z,92316.00
2022-09-28T17:40:24.580Z,92330.00
2022-09-28T17:42:55.012Z,92318.09
2022-09-28T17:45:22.492Z,92332.75
2022-09-28T17:47:49.218Z,92327.22
2022-09-28T17:50:21.609Z,92348.72
2022-09-28T17:52:52.519Z,92359.13
2022-09-28T17:55:24.428Z,92363.88
2022-09-28T17:57:50.925Z,92343.69
2022-09-28T18:00:17.678Z,92349.16
2022-09-28T18:02:44.997Z,92368.22
2022-09-28T18:05:14.575Z,92350.50
2022-09-28T18:07:47.290Z,92347.59
2022-09-28T18:10:17.105Z,92369.13
2022-09-28T18:12:43.493Z,92350.38
2022-09-28T18:15:10.890Z,92351.09
2022-09-28T18:17:39.532Z,92351.53
2022-09-28T18:20:07.571Z,92378.50
2022-09-28T18:22:34.154Z,92363.94
2022-09-28T18:25:00.644Z,92390.50
2022-09-28T18:27:30.382Z,92385.31
2022-09-28T18:29:56.922Z,92375.94
2022-09-28T18:32:29.333Z,92358.63
2022-09-28T18:34:55.743Z,92360.06
2022-09-28T18:37:22.263Z,92390.84
2022-09-28T18:39:49.682Z,92364.97
2022-09-28T18:42:16.447Z,92390.38
2022-09-28T18:44:42.855Z,92378.28
2022-09-28T18:47:15.056Z,92395.16
2022-09-28T18:49:45.909Z,92392.78
2022-09-28T18:52:13.050Z,92411.50
2022-09-28T18:54:40.183Z,92374.94
2022-09-28T18:57:06.541Z,92401.53
2022-09-28T18:59:32.983Z,92401.53
2022-09-28T19:02:01.542Z,92393.16
2022-09-28T19:04:28.156Z,92399.50
2022-09-28T19:06:55.396Z,92409.47
2022-09-28T19:09:23.429Z,92414.66
2022-09-28T19:11:50.420Z,92409.91
2022-09-28T19:14:16.938Z,92413.22
2022-09-28T19:16:44.580Z,92429.66
2022-09-28T19:19:13.171Z,92432.06
2022-09-28T19:21:40.602Z,92434.44
2022-09-28T19:24:07.033Z,92432.28
2022-09-28T19:26:33.944Z,92438.16
2022-09-28T19:29:02.756Z,92439.38
2022-09-28T19:31:30.218Z,92426.53
2022-09-28T19:33:56.887Z,92431.28
2022-09-28T19:36:24.731Z,92443.16
2022-09-28T19:38:55.145Z,92440.59
2022-09-28T19:41:45.700Z,92454.81
2022-09-28T19:44:24.887Z,92463.00
2022-09-28T19:47:07.334Z,92465.97
2022-09-28T19:49:39.926Z,92448.91
2022-09-28T19:52:15.625Z,92461.63
2022-09-28T19:54:44.915Z,92469.72
2022-09-28T19:57:15.780Z,92469.56
2022-09-28T19:59:43.484Z,92458.47
2022-09-28T20:02:11.254Z,92463.81
2022-09-28T20:04:37.677Z,92459.88
2022-09-28T20:07:04.237Z,92466.44
2022-09-28T20:09:31.766Z,92470.59
2022-09-28T20:11:58.306Z,92454.25
2022-09-28T20:14:28.160Z,92442.53
2022-09-28T20:16:58.366Z,92445.75
2022-09-28T20:19:24.810Z,92443.72
2022-09-28T20:21:51.263Z,92438.16
2022-09-28T20:24:17.951Z,92469.16
2022-09-28T20:26:45.775Z,92428.09
2022-09-28T20:29:12.387Z,92465.22
2022-09-28T20:31:38.918Z,92460.88
2022-09-28T20:34:06.477Z,92471.81
2022-09-28T20:36:33.413Z,92474.34
2022-09-28T20:39:03.660Z,92452.81
2022-09-28T20:41:35.604Z,92437.34
2022-09-28T20:44:05.805Z,92471.47
2022-09-28T20:46:33.933Z,92474.84
2022-09-28T20:49:00.600Z,92458.31
2022-09-28T20:51:27.077Z,92459.59
2022-09-28T20:53:56.322Z,92448.44
2022-09-28T20:56:37.998Z,92470.69
2022-09-28T20:59:07.742Z,92449.72
2022-09-28T21:01:34.879Z,92438.97
2022-09-28T21:04:03.575Z,92458.31
2022-09-28T21:06:32.524Z,92460.34
2022-09-28T21:08:59.015Z,92452.47
2022-09-28T21:11:27.850Z,92434.22
2022-09-28T21:14:00.145Z,92450.50
2022-09-28T21:16:28.676Z,92456.13
2022-09-28T21:18:55.383Z,92423.91
2022-09-28T21:21:22.701Z,92447.00
2022-09-28T21:23:53.243Z,92470.13
2022-09-28T21:26:25.379Z,92469.66
2022-09-28T21:29:12.972Z,92444.47
2022-09-28T21:31:40.503Z,92466.88
2022-09-28T21:34:13.115Z,92476.47
2022-09-28T21:36:40.605Z,92448.88
2022-09-28T21:39:10.254Z,92473.47
2022-09-28T21:41:36.947Z,92455.13
2022-09-28T21:44:03.396Z,92443.72
2022-09-28T21:46:34.016Z,92474.00
2022-09-28T21:49:01.802Z,92468.53
2022-09-28T21:51:28.535Z,92436.91
2022-09-28T21:53:55.171Z,92459.16
2022-09-28T21:56:23.059Z,92466.97
2022-09-28T21:58:50.162Z,92469.41
2022-09-28T22:01:19.559Z,92459.75
2022-09-28T22:03:54.739Z,92473.81
2022-09-28T22:06:23.729Z,92470.69
2022-09-28T22:08:50.545Z,92472.72
2022-09-28T22:11:22.742Z,92479.50
2022-09-28T22:13:52.167Z,92471.28
2022-09-28T22:16:20.892Z,92451.06
2022-09-28T22:18:48.134Z,92465.38
2022-09-28T22:21:17.718Z,92433.00
2022-09-28T22:23:44.747Z,92451.94
2022-09-28T22:26:12.570Z,92467.69
2022-09-28T22:28:39.961Z,92440.53
2022-09-28T22:31:06.508Z,92437.34
2022-09-28T22:33:34.032Z,92422.59
2022-09-28T22:36:00.533Z,92429.69
2022-09-28T22:38:28.055Z,92440.69
2022-09-28T22:40:56.152Z,92446.81
2022-09-28T22:43:23.640Z,92449.94
2022-09-28T22:45:51.311Z,92414.97
2022-09-28T22:48:18.521Z,92423.91
2022-09-28T22:50:50.657Z,92433.31
2022-09-28T22:53:17.879Z,92419.44
2022-09-28T22:55:44.423Z,92424.56
2022-09-28T22:58:10.856Z,92434.25
2022-09-28T23:00:38.020Z,92446.41
2022-09-28T23:03:04.744Z,92445.47
2022-09-28T23:05:31.232Z,92426.28
2022-09-28T23:07:57.639Z,92440.41
2022-09-28T23:10:24.336Z,92449.53
2022-09-28T23:12:53.314Z,92437.63
2022-09-28T23:15:20.233Z,92444.25
2022-09-28T23:17:53.428Z,92433.03
2022-09-28T23:20:21.187Z,92447.91
2022-09-28T23:22:48.750Z,92448.66
2022-09-28T23:25:17.059Z,92448.97
2022-09-28T23:27:50.758Z,92456.09
2022-09-28T23:30:20.044Z,92429.03
2022-09-28T23:32:46.535Z,92424.97
2022-09-28T23:35:16.463Z,92433.75
2022-09-28T23:37:42.828Z,92404.34
2022-09-28T23:40:09.589Z,92404.03
2022-09-28T23:42:36.057Z,92413.56
2022-09-28T23:45:02.533Z,92396.41
2022-09-28T23:47:29.141Z,92409.97
2022-09-28T23:49:55.517Z,92379.00
2022-09-28T23:52:21.901Z,92376.75
2022-09-28T23:54:48.261Z,92380.78
2022-09-28T23:57:14.699Z,92396.44
2022-09-28T23:59:41.139Z,92343.88
